Huvudsida
METAR-TAF:

METAR-TAF

Flygplatser :

Al Khardj, Saudiarabien

latitud: 24-03-19N, longitud: 047-33-49E, höjd: 503 m

Aktuellt väderrapport

Denna rapport gjordes för 56 minuter sedan, klockan 00:00 UTC
Vind 7 kt från syd/sydost
Temperatur 32°C
Fuktighet 16%
Tryck 1008 hPa
Sikt 10 km eller mer
Inga moln under 1 500 m eller inga cumulonimbus

METAR: OEKJ 250000Z 15007KT CAVOK 32/03 Q1008

Tid: 03:56 (00:56 UTC)

Väderprognos

Denna rapport gjordes för 1 timme och 56 minuter sedan, klockan 23:00 UTC
Prognos gäller från 25 kl. 00 UTC till 26 kl. 06 UTC
Vind 6 kt från nord/nordväst
Sikt: 7000 m
Få moln på en höjd av 4000 ft
Blir
från 25 kl. 06 UTC till 25 kl. 08 UTC
Vind 10 kt från ost/nordost

TAF: OEKJ 242300Z 2500/2606 33006KT 7000 FEW040 BECMG 2506/2508 07010KT

Aktuella väderrapporter och prognoser från 4000 flygplatser (METAR- och TAF-rapporter).

De tillgängliga stationerna syns som gula och röda prickar på kartan.

För musen över prickarna för att se namnen på stationerna.

Klicka sedan för att få väderrapporter och prognoser.

För att ändra kartan: Klicka på de gröna knapparna med ett svart kors på för att zooma in; den gröna knappen med ett streck på för att zooma ut; eller på de gröna pilarna för angränsande kartor.


METAR-TAF: